Accueil
METAR-TAF:

METAR-TAF

Aéroports :

Wittering, Angleterre

latitude: 52-37N, longitude: 000-28W, altitude: 84 m

Observation

Le bulletin a été fait il y a 1 heure et 12 minutes, à 01:50 UTC
Vent 8 kt de ouest
Température 11°C
Humidité 82%
Pression 1016 hPa
Visibilité 10 km ou plus

METAR: EGXT 170150Z AUTO 26008KT 9999 NCD 11/08 Q1016

Heure: 04:02 (03:02 UTC)

Prévision

Le bulletin a été fait il y a 13 heures et 39 minutes, à 13:23 UTC
Prévision valable du 16 à 15 UTC au 16 à 18 UTC
Vent 12 kt de ouest
Visibilité 10 km ou plus
Quelques nuages à une hauteur de 4000 ft

TAF: EGXT 161323Z 1615/1618 26012KT 9999 FEW040

Observations et prévisions météorologiques de plus de 4000 aéroports (messages METAR et TAF).

Les stations disponibles sont représentées par des disques jaunes et rouges sur la carte.

Passer la souris dessus pour voir le nom de la station.

Cliquer dessus pour voir les observations et prévisions météorologiques.

Pour changer de carte: cliquez sur les boutons verts avec une croix noire pour zoomer, sur le bouton vert avec un tiret pour effectuer un zoom arrière, ou sur les flèches vertes pour les cartes adjacentes.


METAR-TAF: